createdAt,value
2023-05-21T00:00:53.880Z,102445.77
2023-05-21T00:02:14.579Z,102443.05
2023-05-21T00:03:17.731Z,102446.71
2023-05-21T00:04:20.555Z,102445.66
2023-05-21T00:05:24.108Z,102444.01
2023-05-21T00:06:27.743Z,102443.73
2023-05-21T00:07:31.623Z,102442.02
2023-05-21T00:08:34.413Z,102440.13
2023-05-21T00:09:40.401Z,102440.37
2023-05-21T00:10:43.254Z,102442.63
2023-05-21T00:11:45.971Z,102440.96
2023-05-21T00:12:48.738Z,102443.13
2023-05-21T00:13:51.489Z,102441.20
2023-05-21T00:14:54.233Z,102441.52
2023-05-21T00:15:56.939Z,102435.41
2023-05-21T00:16:59.780Z,102432.84
2023-05-21T00:18:02.745Z,102437.27
2023-05-21T00:19:06.212Z,102434.71
2023-05-21T00:20:09.361Z,102433.51
2023-05-21T00:21:12.341Z,102434.92
2023-05-21T00:22:16.033Z,102435.20
2023-05-21T00:23:19.477Z,102433.98
2023-05-21T00:24:22.231Z,102430.87
2023-05-21T00:25:24.938Z,102434.06
2023-05-21T00:26:27.715Z,102432.11
2023-05-21T00:27:32.082Z,102433.98
2023-05-21T00:28:34.955Z,102434.52
2023-05-21T00:29:37.951Z,102436.13
2023-05-21T00:30:41.056Z,102436.34
2023-05-21T00:31:43.798Z,102435.41
2023-05-21T00:32:46.727Z,102438.09
2023-05-21T00:33:49.785Z,102442.61
2023-05-21T00:34:52.529Z,102439.08
2023-05-21T00:35:56.876Z,102437.61
2023-05-21T00:36:59.604Z,102442.59
2023-05-21T00:38:02.355Z,102439.66
2023-05-21T00:39:05.792Z,102444.34
2023-05-21T00:40:09.259Z,102443.33
2023-05-21T00:41:12.031Z,102441.73
2023-05-21T00:42:18.101Z,102441.93
2023-05-21T00:43:26.087Z,102439.30
2023-05-21T00:44:34.122Z,102441.54
2023-05-21T00:45:37.552Z,102440.02
2023-05-21T00:46:40.979Z,102441.77
2023-05-21T00:47:44.255Z,102439.16
2023-05-21T00:48:47.737Z,102436.84
2023-05-21T00:49:52.964Z,102436.67
2023-05-21T00:50:55.768Z,102437.42
2023-05-21T00:52:01.457Z,102437.79
2023-05-21T00:53:04.868Z,102437.38
2023-05-21T00:54:08.402Z,102436.30
2023-05-21T00:55:11.228Z,102436.63
2023-05-21T00:56:14.112Z,102437.58
2023-05-21T00:57:20.659Z,102438.95
2023-05-21T00:58:23.687Z,102438.61
2023-05-21T00:59:26.582Z,102442.34
2023-05-21T01:00:29.606Z,102440.98
2023-05-21T01:01:33.902Z,102443.14
2023-05-21T01:02:37.490Z,102444.65
2023-05-21T01:03:41.066Z,102446.41
2023-05-21T01:04:46.818Z,102447.23
2023-05-21T01:05:51.114Z,102445.98
2023-05-21T01:06:56.212Z,102450.09
2023-05-21T01:07:59.274Z,102450.16
2023-05-21T01:09:04.426Z,102449.80
2023-05-21T01:10:09.649Z,102451.42
2023-05-21T01:11:12.851Z,102449.44
2023-05-21T01:12:15.844Z,102444.25
2023-05-21T01:13:20.664Z,102443.27
2023-05-21T01:14:24.288Z,102440.42
2023-05-21T01:15:27.575Z,102441.45
2023-05-21T01:16:32.359Z,102440.26
2023-05-21T01:17:35.701Z,102440.56
2023-05-21T01:18:38.708Z,102436.99
2023-05-21T01:19:44.497Z,102441.27
2023-05-21T01:20:48.300Z,102441.11
2023-05-21T01:21:56.831Z,102439.88
2023-05-21T01:23:00.766Z,102439.04
2023-05-21T01:24:05.641Z,102440.58
2023-05-21T01:25:08.771Z,102438.30
2023-05-21T01:26:12.996Z,102440.82
2023-05-21T01:27:15.758Z,102440.59
2023-05-21T01:28:18.533Z,102442.23
2023-05-21T01:29:21.816Z,102441.89
2023-05-21T01:32:01.489Z,102438.77
2023-05-21T01:33:07.814Z,102434.64
2023-05-21T01:34:12.309Z,102435.79
2023-05-21T01:35:20.850Z,102433.13
2023-05-21T01:36:26.274Z,102430.52
2023-05-21T01:37:29.142Z,102430.48
2023-05-21T01:38:31.881Z,102429.14
2023-05-21T01:39:38.604Z,102427.14
2023-05-21T01:40:53.304Z,102429.05
2023-05-21T01:41:56.980Z,102427.92
2023-05-21T01:42:59.775Z,102427.38
2023-05-21T01:44:03.760Z,102432.67
2023-05-21T01:45:08.006Z,102433.23
2023-05-21T01:46:13.887Z,102434.38
2023-05-21T01:47:17.906Z,102433.27
2023-05-21T01:48:21.010Z,102435.75
2023-05-21T01:49:24.026Z,102436.02
2023-05-21T01:50:27.068Z,102436.98
2023-05-21T01:51:30.200Z,102436.04
2023-05-21T01:52:32.961Z,102435.23
2023-05-21T01:53:35.838Z,102435.41
2023-05-21T01:54:38.709Z,102433.33
2023-05-21T01:55:42.032Z,102432.46
2023-05-21T01:56:44.960Z,102436.33
2023-05-21T01:57:47.781Z,102435.45
2023-05-21T01:58:50.567Z,102435.17
2023-05-21T01:59:53.494Z,102434.85
2023-05-21T02:00:57.026Z,102431.41
2023-05-21T02:01:59.896Z,102431.62
2023-05-21T02:03:03.213Z,102432.93
2023-05-21T02:04:06.176Z,102432.18
2023-05-21T02:05:09.283Z,102432.24
2023-05-21T02:06:12.042Z,102430.94
2023-05-21T02:07:15.107Z,102430.38
2023-05-21T02:08:19.704Z,102431.92
2023-05-21T02:09:22.676Z,102432.79
2023-05-21T02:10:25.497Z,102435.46
2023-05-21T02:11:28.529Z,102438.52
2023-05-21T02:12:31.304Z,102435.92
2023-05-21T02:13:34.077Z,102436.73
2023-05-21T02:14:39.159Z,102436.96
2023-05-21T02:15:42.311Z,102434.11
2023-05-21T02:16:45.175Z,102436.59
2023-05-21T02:17:48.121Z,102439.65
2023-05-21T02:18:57.424Z,102434.65
2023-05-21T02:20:18.888Z,102434.84
2023-05-21T02:21:21.736Z,102434.73
2023-05-21T02:22:24.463Z,102438.27
2023-05-21T02:23:27.245Z,102438.06
2023-05-21T02:24:30.218Z,102435.87
2023-05-21T02:25:33.122Z,102436.56
2023-05-21T02:26:36.165Z,102437.03
2023-05-21T02:27:39.467Z,102438.01
2023-05-21T02:28:42.181Z,102437.94
2023-05-21T02:29:44.987Z,102434.17
2023-05-21T02:30:47.937Z,102436.63
2023-05-21T02:31:51.371Z,102435.92
2023-05-21T02:32:55.302Z,102434.34
2023-05-21T02:33:58.174Z,102432.23
2023-05-21T02:35:01.921Z,102434.85
2023-05-21T02:36:05.064Z,102436.16
2023-05-21T02:37:09.700Z,102434.67
2023-05-21T02:38:13.692Z,102439.06
2023-05-21T02:39:17.381Z,102436.07
2023-05-21T02:40:20.138Z,102435.73
2023-05-21T02:41:23.360Z,102440.63
2023-05-21T02:42:26.290Z,102440.11
2023-05-21T02:43:29.371Z,102439.20
2023-05-21T02:44:32.204Z,102436.39
2023-05-21T02:45:35.237Z,102429.14
2023-05-21T02:46:38.276Z,102434.31
2023-05-21T02:47:41.485Z,102436.46
2023-05-21T02:48:44.447Z,102433.33
2023-05-21T02:49:47.188Z,102436.05
2023-05-21T02:50:50.459Z,102438.02
2023-05-21T02:51:53.240Z,102437.87
2023-05-21T02:52:56.097Z,102430.65
2023-05-21T02:53:58.846Z,102433.30
2023-05-21T02:55:02.598Z,102428.27
2023-05-21T02:56:05.694Z,102427.94
2023-05-21T02:57:08.604Z,102423.87
2023-05-21T02:58:13.505Z,102424.64
2023-05-21T02:59:16.467Z,102429.31
2023-05-21T03:00:19.374Z,102427.95
2023-05-21T03:01:22.261Z,102427.94
2023-05-21T03:02:25.071Z,102431.02
2023-05-21T03:03:28.229Z,102431.63
2023-05-21T03:04:31.156Z,102435.48
2023-05-21T03:05:34.001Z,102429.14
2023-05-21T03:06:36.993Z,102431.25
2023-05-21T03:07:39.791Z,102434.81
2023-05-21T03:08:42.601Z,102428.30
2023-05-21T03:09:45.662Z,102430.32
2023-05-21T03:10:48.936Z,102426.20
2023-05-21T03:11:51.896Z,102426.14
2023-05-21T03:12:54.975Z,102424.22
2023-05-21T03:13:58.356Z,102421.70
2023-05-21T03:15:01.404Z,102423.11
2023-05-21T03:16:04.268Z,102420.55
2023-05-21T03:17:07.770Z,102420.48
2023-05-21T03:18:11.808Z,102419.25
2023-05-21T03:19:15.627Z,102418.52
2023-05-21T03:20:19.040Z,102417.89
2023-05-21T03:21:24.834Z,102418.92
2023-05-21T03:22:27.844Z,102422.08
2023-05-21T03:23:30.675Z,102417.98
2023-05-21T03:24:33.615Z,102420.80
2023-05-21T03:25:37.732Z,102420.58
2023-05-21T03:26:40.869Z,102420.46
2023-05-21T03:27:43.972Z,102424.26
2023-05-21T03:28:59.265Z,102422.84
2023-05-21T03:30:03.892Z,102423.05
2023-05-21T03:31:08.426Z,102421.72
2023-05-21T03:32:11.444Z,102419.83
2023-05-21T03:33:14.269Z,102420.69
2023-05-21T03:34:20.112Z,102418.20
2023-05-21T03:35:23.797Z,102419.24
2023-05-21T03:36:26.632Z,102419.05
2023-05-21T03:37:29.337Z,102417.77
2023-05-21T03:38:32.306Z,102417.24
2023-05-21T03:39:35.520Z,102416.97
2023-05-21T03:40:38.731Z,102418.02
2023-05-21T03:41:41.780Z,102417.92
2023-05-21T03:42:47.730Z,102416.96
2023-05-21T03:43:50.787Z,102417.85
2023-05-21T03:44:54.246Z,102417.61
2023-05-21T03:46:12.156Z,102414.11
2023-05-21T03:47:14.961Z,102412.29
2023-05-21T03:48:18.215Z,102409.67
2023-05-21T03:49:21.255Z,102405.73
2023-05-21T03:50:25.391Z,102404.13
2023-05-21T03:51:30.385Z,102405.34
2023-05-21T03:52:33.584Z,102400.99
2023-05-21T03:53:36.955Z,102403.88
2023-05-21T03:54:39.918Z,102399.76
2023-05-21T03:55:43.825Z,102402.42
2023-05-21T03:56:46.527Z,102401.53
2023-05-21T03:57:49.332Z,102400.78
2023-05-21T03:58:52.823Z,102402.36
2023-05-21T03:59:55.978Z,102400.80
2023-05-21T04:00:59.040Z,102402.58
2023-05-21T04:02:01.878Z,102400.41
2023-05-21T04:03:04.715Z,102400.41
2023-05-21T04:04:07.791Z,102399.30
2023-05-21T04:05:10.761Z,102398.10
2023-05-21T04:06:13.692Z,102397.95
2023-05-21T04:07:19.223Z,102400.21
2023-05-21T04:08:22.060Z,102398.49
2023-05-21T04:09:24.844Z,102396.39
2023-05-21T04:10:28.150Z,102395.45
2023-05-21T04:11:31.543Z,102396.86
2023-05-21T04:12:34.389Z,102399.05
2023-05-21T04:13:37.209Z,102401.84
2023-05-21T04:14:40.207Z,102399.58
2023-05-21T04:15:44.585Z,102401.18
2023-05-21T04:16:49.396Z,102401.08
2023-05-21T04:17:52.442Z,102398.70
2023-05-21T04:18:55.549Z,102399.85
2023-05-21T04:19:58.808Z,102400.37
2023-05-21T04:21:02.469Z,102394.48
2023-05-21T04:22:05.606Z,102399.20
2023-05-21T04:23:08.664Z,102397.21
2023-05-21T04:24:11.757Z,102396.55
2023-05-21T04:25:34.128Z,102396.53
2023-05-21T04:26:38.173Z,102396.23
2023-05-21T04:27:42.899Z,102398.02
2023-05-21T04:28:46.044Z,102404.20
2023-05-21T04:29:50.774Z,102401.89
2023-05-21T04:30:53.746Z,102400.69
2023-05-21T04:31:56.625Z,102400.98
2023-05-21T04:33:00.376Z,102397.34
2023-05-21T04:34:03.522Z,102399.58
2023-05-21T04:35:06.613Z,102398.36
2023-05-21T04:36:10.593Z,102397.67
2023-05-21T04:37:13.817Z,102397.83
2023-05-21T04:38:19.943Z,102398.33
2023-05-21T04:39:22.895Z,102399.19
2023-05-21T04:40:26.875Z,102394.98
2023-05-21T04:41:29.760Z,102394.81
2023-05-21T04:42:33.101Z,102393.98
2023-05-21T04:43:36.793Z,102393.96
2023-05-21T04:44:44.517Z,102393.36
2023-05-21T04:45:47.677Z,102391.52
2023-05-21T04:46:50.729Z,102391.22
2023-05-21T04:47:53.780Z,102389.19
2023-05-21T04:48:58.100Z,102390.88
2023-05-21T04:50:01.940Z,102390.73
2023-05-21T04:51:06.444Z,102392.59
2023-05-21T04:52:09.157Z,102392.33
2023-05-21T04:53:12.280Z,102392.80
2023-05-21T04:54:15.596Z,102390.20
2023-05-21T04:55:19.079Z,102390.98
2023-05-21T04:56:22.382Z,102393.90
2023-05-21T04:57:25.143Z,102392.67
2023-05-21T04:58:28.640Z,102391.90
2023-05-21T04:59:32.130Z,102393.30
2023-05-21T05:00:37.781Z,102393.75
2023-05-21T05:01:41.229Z,102389.57
2023-05-21T05:02:44.203Z,102391.85
2023-05-21T05:03:47.329Z,102388.79
2023-05-21T05:04:50.261Z,102390.83
2023-05-21T05:05:53.836Z,102391.63
2023-05-21T05:06:56.584Z,102390.02
2023-05-21T05:07:59.435Z,102388.23
2023-05-21T05:09:02.267Z,102389.43
2023-05-21T05:10:05.300Z,102387.02
2023-05-21T05:11:08.689Z,102388.52
2023-05-21T05:12:11.506Z,102386.02
2023-05-21T05:13:14.357Z,102382.42
2023-05-21T05:14:17.171Z,102382.34
2023-05-21T05:15:20.232Z,102381.62
2023-05-21T05:16:25.778Z,102382.35
2023-05-21T05:17:32.059Z,102383.88
2023-05-21T05:18:35.205Z,102382.05
2023-05-21T05:19:38.212Z,102384.54
2023-05-21T05:20:41.249Z,102381.45
2023-05-21T05:21:44.124Z,102382.92
2023-05-21T05:22:47.472Z,102384.98
2023-05-21T05:23:50.321Z,102388.41
2023-05-21T05:24:53.178Z,102387.73
2023-05-21T05:25:56.156Z,102385.23
2023-05-21T05:26:59.039Z,102388.02
2023-05-21T05:28:01.863Z,102384.34
2023-05-21T05:29:04.657Z,102383.23
2023-05-21T05:30:07.776Z,102386.00
2023-05-21T05:31:11.475Z,102382.86
2023-05-21T05:32:14.330Z,102381.80
2023-05-21T05:33:17.448Z,102379.22
2023-05-21T05:34:20.205Z,102381.13
2023-05-21T05:35:25.392Z,102379.02
2023-05-21T05:36:28.513Z,102384.01
2023-05-21T05:37:32.818Z,102380.16
2023-05-21T05:38:36.102Z,102378.84
2023-05-21T05:39:39.062Z,102379.45
2023-05-21T05:40:41.880Z,102376.95
2023-05-21T05:41:44.754Z,102380.83
2023-05-21T05:42:49.434Z,102379.73
2023-05-21T05:43:52.587Z,102381.42
2023-05-21T05:44:57.056Z,102381.63
2023-05-21T05:46:00.492Z,102383.73
2023-05-21T05:47:03.406Z,102384.54
2023-05-21T05:48:06.387Z,102384.31
2023-05-21T05:49:09.214Z,102381.84
2023-05-21T05:50:12.117Z,102385.40
2023-05-21T05:51:15.484Z,102387.19
2023-05-21T05:52:18.362Z,102391.21
2023-05-21T05:53:21.105Z,102389.83
2023-05-21T05:54:23.916Z,102393.48
2023-05-21T05:55:26.930Z,102393.15
2023-05-21T05:56:29.847Z,102395.14
2023-05-21T05:57:32.636Z,102393.77
2023-05-21T05:58:37.758Z,102392.95
2023-05-21T05:59:46.976Z,102391.60
2023-05-21T06:00:51.160Z,102390.84
2023-05-21T06:01:53.995Z,102391.81
2023-05-21T06:02:57.056Z,102387.65
2023-05-21T06:04:00.001Z,102387.27
2023-05-21T06:05:03.349Z,102386.56
2023-05-21T06:06:06.378Z,102386.10
2023-05-21T06:07:09.576Z,102387.63
2023-05-21T06:08:12.426Z,102384.46
2023-05-21T06:09:15.224Z,102383.09
2023-05-21T06:10:18.774Z,102385.40
2023-05-21T06:11:22.788Z,102384.29
2023-05-21T06:12:25.748Z,102386.66
2023-05-21T06:13:28.532Z,102381.98
2023-05-21T06:14:31.392Z,102380.37
2023-05-21T06:15:34.384Z,102380.92
2023-05-21T06:16:37.507Z,102380.91
2023-05-21T06:17:41.007Z,102381.59
2023-05-21T06:18:43.971Z,102385.13
2023-05-21T06:19:47.025Z,102387.34
2023-05-21T06:20:50.359Z,102382.86
2023-05-21T06:21:53.528Z,102386.68
2023-05-21T06:22:56.400Z,102380.80
2023-05-21T06:23:59.513Z,102377.11
2023-05-21T06:25:04.928Z,102378.14
2023-05-21T06:26:07.860Z,102380.07
2023-05-21T06:27:11.069Z,102378.11
2023-05-21T06:28:14.507Z,102376.17
2023-05-21T06:29:17.649Z,102378.39
2023-05-21T06:30:22.118Z,102378.42
2023-05-21T06:31:25.004Z,102377.69
2023-05-21T06:32:28.155Z,102376.52
2023-05-21T06:33:31.981Z,102376.01
2023-05-21T06:34:35.164Z,102375.98
2023-05-21T06:35:39.992Z,102375.38
2023-05-21T06:36:43.523Z,102378.31
2023-05-21T06:37:46.737Z,102375.16
2023-05-21T06:38:49.566Z,102375.33
2023-05-21T06:39:52.347Z,102376.25
2023-05-21T06:40:55.223Z,102376.02
2023-05-21T06:42:12.442Z,102374.93
2023-05-21T06:43:35.524Z,102377.81
2023-05-21T06:45:04.924Z,102376.79
2023-05-21T06:46:13.527Z,102379.30
2023-05-21T06:47:16.621Z,102375.71
2023-05-21T06:48:19.699Z,102379.16
2023-05-21T06:49:23.649Z,102374.18
2023-05-21T06:50:27.963Z,102376.04
2023-05-21T06:51:31.236Z,102372.05
2023-05-21T06:52:34.214Z,102375.70
2023-05-21T06:53:37.506Z,102373.35
2023-05-21T06:54:40.720Z,102369.52
2023-05-21T06:55:46.515Z,102371.45
2023-05-21T06:56:57.083Z,102371.61
2023-05-21T06:58:00.317Z,102372.55
2023-05-21T06:59:03.160Z,102370.43
2023-05-21T07:00:06.411Z,102373.50
2023-05-21T07:01:10.144Z,102373.17
2023-05-21T07:02:13.072Z,102373.16
2023-05-21T07:03:16.301Z,102374.52
2023-05-21T07:04:19.372Z,102376.56
2023-05-21T07:05:22.177Z,102374.45
2023-05-21T07:06:24.973Z,102375.34
2023-05-21T07:07:28.478Z,102375.86
2023-05-21T07:08:31.393Z,102376.43
2023-05-21T07:09:34.734Z,102372.57
2023-05-21T07:10:37.672Z,102373.42
2023-05-21T07:11:41.785Z,102376.50
2023-05-21T07:12:44.946Z,102375.66
2023-05-21T07:13:48.140Z,102377.19
2023-05-21T07:14:51.658Z,102377.75
2023-05-21T07:15:54.427Z,102375.41
2023-05-21T07:16:57.348Z,102375.39
2023-05-21T07:18:00.440Z,102377.23
2023-05-21T07:19:03.332Z,102376.80
2023-05-21T07:20:07.806Z,102376.52
2023-05-21T07:21:11.433Z,102377.90
2023-05-21T07:22:14.580Z,102376.28
2023-05-21T07:23:18.005Z,102378.43
2023-05-21T07:24:21.936Z,102378.89
2023-05-21T07:25:24.981Z,102377.30
2023-05-21T07:26:27.861Z,102379.36
2023-05-21T07:27:30.820Z,102378.48
2023-05-21T07:28:33.556Z,102379.56
2023-05-21T07:29:37.012Z,102377.52
2023-05-21T07:30:39.888Z,102380.13
2023-05-21T07:31:45.952Z,102377.56
2023-05-21T07:32:48.938Z,102374.96
2023-05-21T07:33:51.804Z,102371.94
2023-05-21T07:34:56.842Z,102373.77
2023-05-21T07:36:00.988Z,102371.52
2023-05-21T07:37:04.978Z,102371.85
2023-05-21T07:38:07.819Z,102369.52
2023-05-21T07:39:10.650Z,102371.29
2023-05-21T07:40:14.066Z,102371.27
2023-05-21T07:41:18.821Z,102370.83
2023-05-21T07:42:22.636Z,102370.52
2023-05-21T07:43:25.460Z,102373.54
2023-05-21T07:44:28.257Z,102368.80
2023-05-21T07:45:31.081Z,102375.00
2023-05-21T07:46:34.743Z,102374.25
2023-05-21T07:47:37.673Z,102370.67
2023-05-21T07:48:41.832Z,102373.00
2023-05-21T07:49:44.609Z,102370.21
2023-05-21T07:50:49.719Z,102369.16
2023-05-21T07:51:52.561Z,102366.55
2023-05-21T07:52:55.841Z,102368.52
2023-05-21T07:53:58.751Z,102369.92
2023-05-21T07:55:08.966Z,102369.38
2023-05-21T07:56:12.032Z,102368.48
2023-05-21T07:57:15.043Z,102367.11
2023-05-21T07:58:26.849Z,102366.55
2023-05-21T07:59:30.516Z,102366.69
2023-05-21T08:00:42.144Z,102370.54
2023-05-21T08:01:44.951Z,102368.91
2023-05-21T08:02:48.095Z,102372.17
2023-05-21T08:03:51.507Z,102370.03
2023-05-21T08:04:55.225Z,102368.73
2023-05-21T08:05:58.333Z,102370.30
2023-05-21T08:07:01.209Z,102368.36
2023-05-21T08:08:05.196Z,102371.10
2023-05-21T08:09:08.572Z,102371.83
2023-05-21T08:10:11.729Z,102370.90
2023-05-21T08:11:15.802Z,102373.48
2023-05-21T08:12:19.809Z,102369.86
2023-05-21T08:13:22.771Z,102369.41
2023-05-21T08:14:26.159Z,102371.21
2023-05-21T08:15:29.329Z,102370.70
2023-05-21T08:16:32.168Z,102370.46
2023-05-21T08:17:35.058Z,102372.34
2023-05-21T08:18:37.833Z,102372.42
2023-05-21T08:19:42.062Z,102372.34
2023-05-21T08:20:45.348Z,102369.09
2023-05-21T08:21:48.965Z,102370.95
2023-05-21T08:22:53.611Z,102373.73
2023-05-21T08:23:57.253Z,102371.93
2023-05-21T08:25:01.905Z,102368.47
2023-05-21T08:26:04.769Z,102370.64
2023-05-21T08:27:07.862Z,102366.98
2023-05-21T08:28:10.619Z,102363.18
2023-05-21T08:29:13.348Z,102365.46
2023-05-21T08:30:16.479Z,102364.45
2023-05-21T08:31:20.386Z,102366.96
2023-05-21T08:32:23.480Z,102366.22
2023-05-21T08:33:26.522Z,102365.02
2023-05-21T08:34:29.476Z,102367.93
2023-05-21T08:35:43.830Z,102370.64
2023-05-21T08:36:57.138Z,102365.65
2023-05-21T08:38:22.577Z,102368.91
2023-05-21T08:39:36.117Z,102364.64
2023-05-21T08:40:39.096Z,102367.20
2023-05-21T08:41:46.631Z,102370.63
2023-05-21T08:42:49.633Z,102366.52
2023-05-21T08:43:57.791Z,102367.84
2023-05-21T08:45:04.853Z,102369.00
2023-05-21T08:46:09.590Z,102369.09
2023-05-21T08:47:16.599Z,102364.69
2023-05-21T08:48:19.959Z,102367.27
2023-05-21T08:49:27.471Z,102368.71
2023-05-21T08:50:31.568Z,102366.70
2023-05-21T08:51:36.332Z,102365.85
2023-05-21T08:52:39.256Z,102364.80
2023-05-21T08:53:42.438Z,102366.02
2023-05-21T08:54:46.396Z,102363.15
2023-05-21T08:55:52.583Z,102362.70
2023-05-21T08:56:56.668Z,102366.30
2023-05-21T08:58:01.606Z,102362.72
2023-05-21T08:59:04.606Z,102367.90
2023-05-21T09:00:11.362Z,102369.20
2023-05-21T09:01:14.494Z,102367.08
2023-05-21T09:02:21.801Z,102369.76
2023-05-21T09:03:25.274Z,102368.81
2023-05-21T09:04:28.746Z,102367.58
2023-05-21T09:05:31.731Z,102368.64
2023-05-21T09:06:34.539Z,102367.94
2023-05-21T09:07:44.570Z,102369.56
2023-05-21T09:09:17.598Z,102369.38
2023-05-21T09:10:27.409Z,102368.27
2023-05-21T09:11:30.399Z,102370.36
2023-05-21T09:12:34.819Z,102368.73
2023-05-21T09:13:39.143Z,102370.34
2023-05-21T09:14:47.280Z,102367.89
2023-05-21T09:15:55.943Z,102368.87
2023-05-21T09:17:00.059Z,102368.88
2023-05-21T09:18:10.180Z,102367.09
2023-05-21T09:19:22.418Z,102366.80
2023-05-21T09:20:26.520Z,102365.65
2023-05-21T09:21:33.337Z,102363.48
2023-05-21T09:22:43.221Z,102364.33
2023-05-21T09:23:46.006Z,102365.48
2023-05-21T09:24:51.660Z,102364.60
2023-05-21T09:25:54.733Z,102363.63
2023-05-21T09:27:02.513Z,102365.55
2023-05-21T09:28:11.648Z,102363.69
2023-05-21T09:29:16.266Z,102366.16
2023-05-21T09:30:34.848Z,102366.21
2023-05-21T09:31:43.347Z,102367.41
2023-05-21T09:32:53.111Z,102370.66
2023-05-21T09:33:56.441Z,102366.51
2023-05-21T09:35:12.922Z,102370.77
2023-05-21T09:36:17.764Z,102369.25
2023-05-21T09:38:30.317Z,102371.86
2023-05-21T09:39:33.623Z,102371.61
2023-05-21T09:40:43.834Z,102369.42
2023-05-21T09:41:46.749Z,102370.10
2023-05-21T09:42:51.237Z,102369.23
2023-05-21T09:43:58.617Z,102369.58
2023-05-21T09:45:02.040Z,102370.93
2023-05-21T09:46:06.403Z,102373.50
2023-05-21T09:47:09.713Z,102373.81
2023-05-21T09:48:12.789Z,102369.69
2023-05-21T09:49:23.586Z,102369.28
2023-05-21T09:50:31.656Z,102374.35
2023-05-21T09:51:39.498Z,102365.82
2023-05-21T09:52:42.456Z,102368.45
2023-05-21T09:54:01.211Z,102371.13
2023-05-21T09:55:05.575Z,102371.26
2023-05-21T09:56:09.217Z,102370.95
2023-05-21T09:57:14.350Z,102370.84
2023-05-21T09:58:17.189Z,102365.80
2023-05-21T09:59:20.614Z,102368.13
2023-05-21T10:00:24.387Z,102367.98
2023-05-21T10:01:28.170Z,102367.45
2023-05-21T10:02:31.692Z,102368.48
2023-05-21T10:03:38.959Z,102365.40
2023-05-21T10:04:42.748Z,102367.92
2023-05-21T10:05:45.737Z,102364.67
2023-05-21T10:06:50.019Z,102365.67
2023-05-21T10:07:54.433Z,102364.90
2023-05-21T10:08:59.499Z,102364.38
2023-05-21T10:10:03.901Z,102365.29
2023-05-21T10:11:06.994Z,102364.34
2023-05-21T10:12:10.904Z,102365.50
2023-05-21T10:13:15.016Z,102368.64
2023-05-21T10:14:20.248Z,102367.90
2023-05-21T10:15:24.250Z,102365.73
2023-05-21T10:16:27.259Z,102365.33
2023-05-21T10:17:30.821Z,102364.52
2023-05-21T10:18:35.073Z,102366.09
2023-05-21T10:19:38.972Z,102368.31
2023-05-21T10:20:42.594Z,102368.91
2023-05-21T10:21:45.923Z,102370.44
2023-05-21T10:22:50.602Z,102369.91
2023-05-21T10:23:56.513Z,102370.67
2023-05-21T10:24:59.447Z,102368.85
2023-05-21T10:26:03.169Z,102369.30
2023-05-21T10:27:07.183Z,102371.09
2023-05-21T10:28:10.275Z,102371.61
2023-05-21T10:29:17.452Z,102372.32
2023-05-21T10:30:23.381Z,102372.29
2023-05-21T10:31:26.760Z,102372.30
2023-05-21T10:32:30.449Z,102371.31
2023-05-21T10:33:35.900Z,102371.27
2023-05-21T10:34:38.891Z,102371.20
2023-05-21T10:35:42.160Z,102366.92
2023-05-21T10:36:46.227Z,102363.86
2023-05-21T10:37:49.774Z,102366.81
2023-05-21T10:38:53.273Z,102364.66
2023-05-21T10:39:56.850Z,102364.03
2023-05-21T10:41:00.733Z,102363.89
2023-05-21T10:42:03.697Z,102365.71
2023-05-21T10:43:18.433Z,102361.89
2023-05-21T10:44:40.048Z,102364.56
2023-05-21T10:45:52.075Z,102363.89
2023-05-21T10:47:13.428Z,102363.98
2023-05-21T10:48:23.781Z,102360.05
2023-05-21T10:49:34.306Z,102362.13
2023-05-21T10:50:57.416Z,102356.55
2023-05-21T10:52:19.106Z,102355.27
2023-05-21T10:53:40.604Z,102352.39
2023-05-21T10:55:03.792Z,102350.80
2023-05-21T10:56:25.448Z,102350.75
2023-05-21T10:57:46.673Z,102347.68
2023-05-21T10:59:07.874Z,102347.33
2023-05-21T11:00:12.689Z,102347.27
2023-05-21T11:01:16.604Z,102350.39
2023-05-21T11:02:20.053Z,102349.19
2023-05-21T11:03:23.200Z,102349.48
2023-05-21T11:04:27.039Z,102349.78
2023-05-21T11:05:41.365Z,102346.32
2023-05-21T11:06:48.198Z,102345.38
2023-05-21T11:07:56.505Z,102346.56
2023-05-21T11:09:12.691Z,102349.05
2023-05-21T11:10:34.228Z,102347.85
2023-05-21T11:11:43.564Z,102351.21
2023-05-21T11:13:06.056Z,102352.00
2023-05-21T11:14:28.150Z,102349.70
2023-05-21T11:15:31.062Z,102353.17
2023-05-21T11:16:40.548Z,102351.33
2023-05-21T11:17:44.656Z,102354.39
2023-05-21T11:18:47.930Z,102357.50
2023-05-21T11:19:51.671Z,102356.38
2023-05-21T11:20:54.427Z,102355.81
2023-05-21T11:21:57.331Z,102354.21
2023-05-21T11:23:00.180Z,102350.36
2023-05-21T11:24:18.521Z,102350.48
2023-05-21T11:25:21.588Z,102345.16
2023-05-21T11:26:31.029Z,102343.19
2023-05-21T11:27:38.033Z,102342.19
2023-05-21T11:28:41.481Z,102345.09
2023-05-21T11:29:44.942Z,102340.33
2023-05-21T11:31:07.727Z,102342.77
2023-05-21T11:32:13.820Z,102343.30
2023-05-21T11:33:19.910Z,102338.92
2023-05-21T11:34:29.625Z,102336.68
2023-05-21T11:35:36.171Z,102336.79
2023-05-21T11:36:39.460Z,102338.98
2023-05-21T11:37:43.737Z,102338.98
2023-05-21T11:39:07.159Z,102340.67
2023-05-21T11:40:16.747Z,102339.46
2023-05-21T11:41:20.082Z,102338.55
2023-05-21T11:42:30.527Z,102339.83
2023-05-21T11:43:33.272Z,102338.71
2023-05-21T11:44:48.238Z,102339.48
2023-05-21T11:45:53.185Z,102338.75
2023-05-21T11:46:56.589Z,102338.67
2023-05-21T11:48:00.261Z,102339.76
2023-05-21T11:49:03.796Z,102337.52
2023-05-21T11:50:12.186Z,102335.11
2023-05-21T11:51:15.226Z,102336.52
2023-05-21T11:52:19.796Z,102337.84
2023-05-21T11:53:22.599Z,102336.31
2023-05-21T11:54:26.135Z,102337.74
2023-05-21T11:55:29.010Z,102337.90
2023-05-21T11:56:33.037Z,102335.97
2023-05-21T11:57:35.842Z,102333.29
2023-05-21T11:58:42.197Z,102334.16
2023-05-21T11:59:47.571Z,102335.42
2023-05-21T12:00:51.176Z,102338.09
2023-05-21T12:01:55.261Z,102337.75
2023-05-21T12:02:58.958Z,102338.15
2023-05-21T12:04:04.385Z,102341.83
2023-05-21T12:05:13.155Z,102340.27
2023-05-21T12:06:20.302Z,102337.44
2023-05-21T12:07:23.188Z,102340.14
2023-05-21T12:08:27.196Z,102338.72
2023-05-21T12:09:30.335Z,102339.85
2023-05-21T12:10:37.711Z,102337.56
2023-05-21T12:11:41.553Z,102338.13
2023-05-21T12:12:54.899Z,102334.83
2023-05-21T12:13:59.744Z,102335.29
2023-05-21T12:15:02.679Z,102336.38
2023-05-21T12:16:07.315Z,102334.35
2023-05-21T12:17:10.698Z,102339.55
2023-05-21T12:18:15.175Z,102338.93
2023-05-21T12:19:19.334Z,102336.38
2023-05-21T12:20:22.230Z,102336.44
2023-05-21T12:21:27.191Z,102333.23
2023-05-21T12:22:30.422Z,102331.08